Time;durP1;ratioP1;P1;durP2;ratioP2;P2;SDS_P1;SDS_P2;PMS_P1;PMS_P2;Temp;Humidity;BMP_temperature;BMP_pressure;BME280_temperature;BME280_humidity;BME280_pressure;Samples;Min_cycle;Max_cycle;Signal;HPM_P1;HPM_P2
2021/03/27 00:01:49;;;;;;;12.30;10.43;;;11.20;92.60;;;;;;5034734;28;20654;-41
2021/03/27 00:04:22;;;;;;;13.05;10.35;;;11.20;92.40;;;;;;5034979;28;20588;-43
2021/03/27 00:06:52;;;;;;;12.80;9.23;;;11.30;92.10;;;;;;5034692;28;20741;-43
2021/03/27 00:09:34;;;;;;;10.32;8.40;;;11.40;91.70;;;;;;5034722;28;20209;-45
2021/03/27 00:12:07;;;;;;;11.38;8.25;;;11.60;91.50;;;;;;5034760;28;20327;-43
2021/03/27 00:14:45;;;;;;;12.05;10.43;;;11.70;91.30;;;;;;5034662;28;20552;-43
2021/03/27 00:17:38;;;;;;;10.77;8.15;;;11.90;91.10;;;;;;5034740;28;20224;-42
2021/03/27 00:20:14;;;;;;;7.78;6.18;;;12.00;90.80;;;;;;5034828;28;20208;-43
2021/03/27 00:22:47;;;;;;;8.93;6.13;;;12.20;90.50;;;;;;5034389;28;20268;-43
2021/03/27 00:25:17;;;;;;;8.15;5.85;;;12.30;90.20;;;;;;5034021;28;20208;-45
2021/03/27 00:27:51;;;;;;;8.55;6.38;;;12.40;90.00;;;;;;5034182;28;20239;-46
2021/03/27 00:30:25;;;;;;;6.10;4.85;;;12.50;89.60;;;;;;5034089;28;20223;-44
2021/03/27 00:32:57;;;;;;;10.85;5.45;;;12.60;89.30;;;;;;5034122;28;20254;-42
2021/03/27 00:35:30;;;;;;;9.65;6.05;;;12.60;89.10;;;;;;5034026;28;20300;-44
2021/03/27 00:37:59;;;;;;;5.88;5.20;;;12.70;88.90;;;;;;5034097;28;20295;-42
2021/03/27 00:40:30;;;;;;;6.40;5.80;;;12.70;88.70;;;;;;5033990;28;20236;-43
2021/03/27 00:43:02;;;;;;;6.32;5.05;;;12.70;88.60;;;;;;5033887;28;20315;-43
2021/03/27 00:45:35;;;;;;;5.82;5.30;;;12.70;88.50;;;;;;5033873;28;20303;-44
2021/03/27 00:48:06;;;;;;;6.57;5.80;;;12.70;88.50;;;;;;5033837;28;20204;-44
2021/03/27 00:50:37;;;;;;;4.93;4.53;;;12.70;88.40;;;;;;5033895;28;20219;-43
2021/03/27 00:53:10;;;;;;;5.43;4.95;;;12.70;88.40;;;;;;5033931;28;20263;-45
2021/03/27 00:55:46;;;;;;;5.10;4.45;;;12.70;88.30;;;;;;5033977;28;20251;-42
2021/03/27 00:58:20;;;;;;;6.18;5.00;;;12.70;88.30;;;;;;5033945;28;20212;-44
2021/03/27 01:00:51;;;;;;;7.90;7.20;;;12.70;88.30;;;;;;5033756;28;20299;-45
2021/03/27 01:03:22;;;;;;;7.13;6.43;;;12.70;88.40;;;;;;5033631;28;20256;-45
2021/03/27 01:05:51;;;;;;;6.38;5.53;;;12.60;88.40;;;;;;5033527;28;20227;-43
2021/03/27 01:08:20;;;;;;;6.47;5.72;;;12.60;88.60;;;;;;5033791;28;20287;-44
2021/03/27 01:10:49;;;;;;;5.60;5.10;;;12.60;88.90;;;;;;5033450;28;20252;-43
2021/03/27 01:13:23;;;;;;;7.05;5.82;;;12.50;89.10;;;;;;5033421;28;20267;-45
2021/03/27 01:15:54;;;;;;;11.90;6.40;;;12.40;89.50;;;;;;5033509;28;20236;-43
2021/03/27 01:18:26;;;;;;;7.20;6.18;;;12.40;90.00;;;;;;5033235;28;20288;-45
2021/03/27 01:20:58;;;;;;;6.53;5.60;;;12.30;90.20;;;;;;5033562;28;20212;-44
2021/03/27 01:23:26;;;;;;;8.15;6.45;;;12.10;90.40;;;;;;5033188;28;20350;-44
2021/03/27 01:25:58;;;;;;;10.32;6.63;;;12.10;90.70;;;;;;5033014;28;20667;-43
2021/03/27 01:28:31;;;;;;;8.23;7.07;;;12.00;90.90;;;;;;5033102;28;20291;-42
2021/03/27 01:31:06;;;;;;;9.18;7.55;;;12.00;91.20;;;;;;5033352;28;20244;-43
2021/03/27 01:33:36;;;;;;;8.15;7.35;;;11.90;91.40;;;;;;5033038;28;20240;-43
2021/03/27 01:36:12;;;;;;;10.18;7.95;;;11.80;91.60;;;;;;5032516;28;20304;-43
2021/03/27 01:38:45;;;;;;;9.88;8.88;;;11.70;92.10;;;;;;5032973;28;20632;-44
2021/03/27 01:41:22;;;;;;;9.63;7.88;;;11.60;92.30;;;;;;5032950;28;20300;-44
2021/03/27 01:44:12;;;;;;;9.32;8.38;;;11.50;92.70;;;;;;5033158;28;20329;-43
2021/03/27 01:47:10;;;;;;;10.50;9.40;;;11.50;93.00;;;;;;5032943;28;20282;-43
2021/03/27 01:50:10;;;;;;;11.18;9.55;;;11.40;93.30;;;;;;5032728;28;20209;-43
2021/03/27 01:53:08;;;;;;;13.35;11.80;;;11.40;93.40;;;;;;4998935;28;20237;-43
2021/03/27 01:55:50;;;;;;;10.93;9.45;;;11.40;93.40;;;;;;5025467;28;20279;-44
2021/03/27 01:58:23;;;;;;;13.93;9.70;;;11.40;93.70;;;;;;5032408;28;20709;-43
2021/03/27 02:00:54;;;;;;;10.10;8.82;;;11.40;93.60;;;;;;5032424;28;20209;-42
2021/03/27 02:03:26;;;;;;;9.68;7.97;;;11.40;93.50;;;;;;5032402;28;20236;-42
2021/03/27 02:05:59;;;;;;;9.35;7.07;;;11.40;93.70;;;;;;5032652;28;20216;-42
2021/03/27 02:08:41;;;;;;;8.10;6.95;;;11.40;93.80;;;;;;5032605;28;20243;-41
2021/03/27 02:11:16;;;;;;;7.95;6.88;;;11.50;93.90;;;;;;5032644;28;20358;-42
2021/03/27 02:13:48;;;;;;;7.03;6.40;;;11.50;93.80;;;;;;5032500;28;20199;-42
2021/03/27 02:16:27;;;;;;;8.85;7.60;;;11.60;93.70;;;;;;5032157;28;20212;-42
2021/03/27 02:19:18;;;;;;;10.10;7.07;;;11.60;93.80;;;;;;5032373;28;20686;-43
2021/03/27 02:21:54;;;;;;;11.05;7.50;;;11.50;93.80;;;;;;4989150;28;20263;-42
2021/03/27 02:24:48;;;;;;;9.02;7.63;;;11.50;94.10;;;;;;5032246;28;20258;-41
2021/03/27 02:27:21;;;;;;;8.45;6.95;;;11.40;94.40;;;;;;4997977;28;20304;-42
2021/03/27 02:30:09;;;;;;;11.15;8.13;;;11.30;94.40;;;;;;5032008;28;20331;-41
2021/03/27 02:33:09;;;;;;;10.10;8.35;;;11.30;94.60;;;;;;5031858;28;20287;-41
2021/03/27 02:35:53;;;;;;;10.60;9.52;;;11.20;94.70;;;;;;5032163;28;20553;-45
2021/03/27 02:38:28;;;;;;;9.85;8.82;;;11.20;95.00;;;;;;5032115;28;20331;-43
2021/03/27 02:41:05;;;;;;;9.95;8.85;;;11.10;95.00;;;;;;5031791;28;20270;-43
2021/03/27 02:43:37;;;;;;;11.65;9.23;;;11.10;95.00;;;;;;5031728;28;20234;-43
2021/03/27 02:46:09;;;;;;;10.20;9.07;;;11.10;95.10;;;;;;5032164;28;20204;-44
2021/03/27 02:48:48;;;;;;;17.25;8.75;;;11.10;95.30;;;;;;5031844;28;20311;-44
2021/03/27 02:51:24;;;;;;;10.95;9.13;;;11.10;95.40;;;;;;5031794;28;20236;-43
2021/03/27 02:54:05;;;;;;;11.20;9.98;;;11.10;95.50;;;;;;5031715;28;20246;-41
2021/03/27 02:56:39;;;;;;;11.18;8.52;;;11.00;95.60;;;;;;5031873;28;20256;-43
2021/03/27 02:59:18;;;;;;;16.33;10.05;;;11.10;95.70;;;;;;5031585;28;20766;-45
2021/03/27 03:01:53;;;;;;;10.13;8.90;;;11.10;95.90;;;;;;5031774;28;20216;-43
2021/03/27 03:04:32;;;;;;;9.93;8.93;;;11.10;95.90;;;;;;5031483;28;20670;-43
2021/03/27 03:07:05;;;;;;;10.48;8.70;;;11.10;96.00;;;;;;5031551;28;20251;-42
2021/03/27 03:09:37;;;;;;;10.45;8.50;;;11.10;96.00;;;;;;5031748;28;20309;-43
2021/03/27 03:12:15;;;;;;;10.93;7.55;;;11.10;96.10;;;;;;5031479;28;20276;-42
2021/03/27 03:14:58;;;;;;;10.73;8.45;;;11.10;96.30;;;;;;5031306;28;20667;-43
2021/03/27 03:17:34;;;;;;;8.90;8.07;;;11.10;96.50;;;;;;5031789;28;20212;-44
2021/03/27 03:20:17;;;;;;;10.80;8.43;;;11.00;96.60;;;;;;5031466;28;20620;-44
2021/03/27 03:22:52;;;;;;;9.77;8.20;;;11.00;96.70;;;;;;5031410;28;20264;-43
2021/03/27 03:25:23;;;;;;;10.18;8.70;;;11.00;96.90;;;;;;5031396;28;20705;-44
2021/03/27 03:27:59;;;;;;;12.30;8.52;;;10.90;97.00;;;;;;5031488;28;20304;-43
2021/03/27 03:30:31;;;;;;;9.77;8.18;;;10.90;97.10;;;;;;5031651;28;20235;-43
2021/03/27 03:33:27;;;;;;;11.05;8.32;;;10.90;97.20;;;;;;5031451;28;20267;-42
2021/03/27 03:36:00;;;;;;;10.40;8.98;;;10.90;97.40;;;;;;5031707;28;20227;-44
2021/03/27 03:38:52;;;;;;;12.60;8.35;;;10.90;97.40;;;;;;5031385;28;20706;-43
2021/03/27 03:41:42;;;;;;;14.48;9.23;;;10.90;97.60;;;;;;5031467;28;20242;-43
2021/03/27 03:44:13;;;;;;;9.48;7.80;;;10.90;97.70;;;;;;5031624;28;20283;-43
2021/03/27 03:46:48;;;;;;;9.27;8.35;;;10.90;97.70;;;;;;5031463;28;20212;-43
2021/03/27 03:49:39;;;;;;;8.88;8.02;;;10.90;97.80;;;;;;5031407;28;20220;-43
2021/03/27 03:52:30;;;;;;;9.10;7.88;;;10.90;98.00;;;;;;5031345;28;20240;-42
2021/03/27 03:55:10;;;;;;;8.63;7.80;;;10.90;98.00;;;;;;5031497;28;20215;-44
2021/03/27 03:58:20;;;;;;;10.32;7.93;;;10.90;98.20;;;;;;5031602;28;20261;-42
2021/03/27 04:00:56;;;;;;;8.27;7.43;;;10.80;98.40;;;;;;5034477;28;20216;-42
2021/03/27 04:03:30;;;;;;;8.95;8.00;;;10.80;98.50;;;;;;5035070;28;20650;-42
2021/03/27 04:06:01;;;;;;;8.07;6.35;;;10.80;99.00;;;;;;5035040;28;20232;-42
2021/03/27 04:08:36;;;;;;;9.02;7.70;;;10.80;99.40;;;;;;5034764;28;20377;-42
2021/03/27 04:11:17;;;;;;;7.95;7.15;;;10.70;99.80;;;;;;5034722;28;20295;-42
2021/03/27 04:13:53;;;;;;;9.27;7.18;;;10.70;99.90;;;;;;5034656;28;20300;-41
2021/03/27 04:16:23;;;;;;;7.60;6.13;;;10.60;99.90;;;;;;5034630;28;20303;-41
2021/03/27 04:18:56;;;;;;;8.38;7.03;;;10.50;99.90;;;;;;5034613;28;20299;-42
2021/03/27 04:21:31;;;;;;;7.95;6.82;;;10.40;99.90;;;;;;5034552;28;20220;-42
2021/03/27 04:24:03;;;;;;;7.13;6.30;;;10.30;99.90;;;;;;5034610;28;20318;-41
2021/03/27 04:26:43;;;;;;;8.52;6.85;;;10.20;99.90;;;;;;5034409;28;20258;-41
2021/03/27 04:29:29;;;;;;;7.03;5.60;;;10.20;99.90;;;;;;5034468;28;20299;-42
2021/03/27 04:32:30;;;;;;;6.72;5.43;;;10.10;99.90;;;;;;5034533;28;20288;-42
2021/03/27 04:35:11;;;;;;;5.63;5.13;;;10.10;99.90;;;;;;5034441;28;20213;-42
2021/03/27 04:37:44;;;;;;;4.70;4.20;;;10.00;99.90;;;;;;5034282;28;20299;-42
2021/03/27 04:40:18;;;;;;;5.18;4.68;;;9.90;99.90;;;;;;5034093;28;20291;-43
2021/03/27 04:42:50;;;;;;;4.85;4.40;;;9.90;99.90;;;;;;5034188;28;20591;-42
2021/03/27 04:45:24;;;;;;;5.50;5.00;;;9.90;99.90;;;;;;5034311;28;20243;-42
2021/03/27 04:48:02;;;;;;;5.28;4.80;;;9.90;99.90;;;;;;5034012;28;20266;-42
2021/03/27 04:51:02;;;;;;;5.30;4.10;;;9.90;99.90;;;;;;5033984;28;20304;-41
2021/03/27 04:53:33;;;;;;;3.97;3.33;;;9.80;99.90;;;;;;5033988;28;20618;-42
2021/03/27 04:56:08;;;;;;;3.72;3.08;;;9.90;99.90;;;;;;5033875;28;20205;-43
2021/03/27 04:58:41;;;;;;;3.47;3.08;;;9.80;99.90;;;;;;5033625;28;20322;-42
2021/03/27 05:01:18;;;;;;;4.10;3.72;;;9.80;99.90;;;;;;5033428;28;20208;-42
2021/03/27 05:03:54;;;;;;;4.03;3.58;;;9.80;99.90;;;;;;5033366;28;20302;-42
2021/03/27 05:06:31;;;;;;;3.97;3.58;;;9.80;99.90;;;;;;5033357;28;20212;-42
2021/03/27 05:09:15;;;;;;;3.90;3.47;;;9.80;99.90;;;;;;5033598;28;20311;-41
2021/03/27 05:11:50;;;;;;;3.72;3.20;;;9.80;99.90;;;;;;5032299;28;20701;-42
2021/03/27 05:14:31;;;;;;;3.35;3.05;;;9.70;99.90;;;;;;5033572;28;20262;-43
2021/03/27 05:17:07;;;;;;;5.20;3.63;;;9.70;99.90;;;;;;5033498;28;20266;-43
2021/03/27 05:19:39;;;;;;;3.97;3.65;;;9.70;99.90;;;;;;5033233;28;20205;-43
2021/03/27 05:22:19;;;;;;;3.70;3.25;;;9.60;99.90;;;;;;5033440;28;20300;-44
2021/03/27 05:25:14;;;;;;;4.25;3.85;;;9.60;99.90;;;;;;5033441;28;20288;-43
2021/03/27 05:31:29;;;;;;;4.65;3.88;;;9.60;99.90;;;;;;5033579;28;20535;-43
2021/03/27 05:34:13;;;;;;;4.63;4.03;;;9.60;99.90;;;;;;5032838;28;20237;-34
2021/03/27 05:36:53;;;;;;;4.70;3.13;;;9.60;99.90;;;;;;5032791;28;20211;-42
2021/03/27 05:39:34;;;;;;;4.43;3.67;;;9.60;99.90;;;;;;5033003;28;20208;-42
2021/03/27 05:42:34;;;;;;;3.60;3.30;;;9.60;99.90;;;;;;5032871;28;20204;-41
2021/03/27 05:45:42;;;;;;;5.85;3.00;;;9.60;99.90;;;;;;5032448;28;20238;-42
2021/03/27 05:49:09;;;;;;;3.22;2.92;;;9.70;99.90;;;;;;5032453;28;20219;-42
2021/03/27 05:52:11;;;;;;;4.53;3.70;;;9.80;99.90;;;;;;5032588;28;20307;-42
2021/03/27 05:55:03;;;;;;;3.10;2.83;;;9.80;99.90;;;;;;5004591;28;20247;-41
2021/03/27 05:57:57;;;;;;;3.60;3.03;;;9.80;99.90;;;;;;5032531;28;20521;-43
2021/03/27 06:00:37;;;;;;;3.38;2.83;;;9.80;99.90;;;;;;5032697;28;20252;-45
2021/03/27 06:03:38;;;;;;;4.30;2.92;;;9.90;99.90;;;;;;5032432;28;20271;-46
2021/03/27 06:06:38;;;;;;;3.03;2.72;;;9.90;99.90;;;;;;5032394;28;20307;-45
2021/03/27 06:09:34;;;;;;;3.63;2.85;;;9.90;99.90;;;;;;5032402;28;20295;-45
2021/03/27 06:12:31;;;;;;;4.22;2.63;;;10.00;99.90;;;;;;5032269;28;20295;-44
2021/03/27 06:15:25;;;;;;;6.65;5.25;;;9.90;99.90;;;;;;5032340;28;20579;-45
2021/03/27 06:18:22;;;;;;;4.80;3.40;;;10.00;99.90;;;;;;5032338;28;20254;-46
2021/03/27 06:21:07;;;;;;;4.88;3.30;;;10.10;99.90;;;;;;5032317;28;20234;-48
2021/03/27 06:23:55;;;;;;;4.00;2.50;;;10.10;99.90;;;;;;5031891;28;20662;-44
2021/03/27 06:26:38;;;;;;;2.75;2.50;;;10.10;99.90;;;;;;5032106;28;20243;-46
2021/03/27 06:29:48;;;;;;;3.13;2.65;;;10.00;99.90;;;;;;5032106;28;20208;-44
2021/03/27 06:32:50;;;;;;;2.58;2.03;;;9.90;99.90;;;;;;5031938;28;20276;-45
2021/03/27 06:35:31;;;;;;;1.67;1.17;;;9.80;99.90;;;;;;5031968;28;20223;-44
2021/03/27 06:38:25;;;;;;;1.15;1.00;;;9.20;99.90;;;;;;5031973;28;20204;-47
2021/03/27 06:41:06;;;;;;;0.68;0.68;;;8.70;99.90;;;;;;5031556;28;20232;-45
2021/03/27 06:44:01;;;;;;;1.17;0.93;;;8.20;99.90;;;;;;5031656;28;20235;-47
2021/03/27 06:46:53;;;;;;;2.15;1.35;;;8.00;99.90;;;;;;5028403;28;20658;-43
2021/03/27 06:49:52;;;;;;;1.20;0.80;;;7.80;99.90;;;;;;5028947;28;20213;-42
2021/03/27 06:53:05;;;;;;;1.70;1.50;;;7.60;99.90;;;;;;5031411;28;20663;-41
2021/03/27 06:56:04;;;;;;;2.17;0.82;;;7.50;99.90;;;;;;5031230;28;20208;-42
2021/03/27 06:59:01;;;;;;;1.23;1.10;;;7.50;99.90;;;;;;5024619;28;20253;-40
2021/03/27 07:02:04;;;;;;;1.35;1.25;;;7.40;99.90;;;;;;5031256;28;20244;-41
2021/03/27 07:05:09;;;;;;;1.08;0.98;;;7.40;99.90;;;;;;5031476;28;20334;-43
2021/03/27 07:08:06;;;;;;;0.95;0.95;;;7.30;99.90;;;;;;5031325;28;20675;-44
2021/03/27 07:11:12;;;;;;;1.48;1.10;;;7.40;99.90;;;;;;5031471;28;20291;-44
2021/03/27 07:14:20;;;;;;;1.73;1.15;;;7.40;99.90;;;;;;5031222;28;20239;-42
2021/03/27 07:17:36;;;;;;;4.63;0.95;;;7.60;99.90;;;;;;5017117;28;20236;-44
2021/03/27 07:20:26;;;;;;;1.10;1.00;;;7.80;99.90;;;;;;4998185;28;20208;-45
2021/03/27 07:23:22;;;;;;;1.25;1.15;;;8.00;99.90;;;;;;5031049;28;20234;-44
2021/03/27 07:26:10;;;;;;;1.27;1.15;;;8.00;99.90;;;;;;5025043;28;20215;-47
2021/03/27 07:28:51;;;;;;;1.67;1.48;;;8.10;99.90;;;;;;5031129;28;20213;-43
2021/03/27 07:31:35;;;;;;;2.28;1.00;;;8.20;99.90;;;;;;5031300;28;20239;-42
2021/03/27 07:34:29;;;;;;;2.25;1.17;;;8.40;99.90;;;;;;5018785;28;20224;-43
2021/03/27 07:37:35;;;;;;;1.65;0.80;;;8.50;99.90;;;;;;5034891;28;20240;-43
2021/03/27 07:40:27;;;;;;;2.45;2.10;;;8.60;99.90;;;;;;5034955;28;20213;-44
2021/03/27 07:43:16;;;;;;;2.58;1.20;;;8.80;99.90;;;;;;5034692;28;20264;-45
2021/03/27 07:46:14;;;;;;;1.85;1.60;;;8.90;99.90;;;;;;5034569;28;20248;-44
2021/03/27 07:49:06;;;;;;;3.35;1.70;;;9.10;99.90;;;;;;5030604;28;20208;-43
2021/03/27 07:52:02;;;;;;;2.20;1.23;;;9.30;99.90;;;;;;5034778;28;20255;-44
2021/03/27 07:55:01;;;;;;;1.77;1.30;;;9.40;99.90;;;;;;5034804;28;20284;-44
2021/03/27 07:57:54;;;;;;;1.95;1.13;;;9.60;99.90;;;;;;5013725;28;20300;-43
2021/03/27 08:00:39;;;;;;;3.03;2.17;;;9.50;99.90;;;;;;5034929;28;20204;-41
2021/03/27 08:03:45;;;;;;;2.22;1.80;;;9.50;99.90;;;;;;5035610;28;20246;-41
2021/03/27 08:06:46;;;;;;;1.25;1.15;;;9.50;99.90;;;;;;5034491;28;20299;-41
2021/03/27 08:09:30;;;;;;;2.38;1.20;;;9.40;99.90;;;;;;5023781;28;20257;-42
2021/03/27 08:12:23;;;;;;;1.60;1.00;;;9.40;99.90;;;;;;5021692;28;20262;-41
2021/03/27 08:15:20;;;;;;;1.65;1.40;;;9.40;99.90;;;;;;5024321;28;20300;-42
2021/03/27 08:18:05;;;;;;;2.08;1.58;;;9.40;99.90;;;;;;5034193;28;20675;-42
2021/03/27 08:20:47;;;;;;;1.15;1.00;;;9.40;99.90;;;;;;5033796;28;20208;-42
2021/03/27 08:23:54;;;;;;;2.00;1.02;;;9.30;99.90;;;;;;5033799;28;20239;-42
2021/03/27 08:26:49;;;;;;;1.33;1.02;;;9.30;99.90;;;;;;5034005;28;20240;-41
2021/03/27 08:29:55;;;;;;;1.77;1.50;;;9.20;99.90;;;;;;5031810;28;20364;-42
2021/03/27 08:33:00;;;;;;;1.63;1.17;;;9.20;99.90;;;;;;5035802;28;20699;-41
2021/03/27 08:36:05;;;;;;;1.50;1.00;;;9.10;99.90;;;;;;5001930;28;20212;-43
2021/03/27 08:38:53;;;;;;;2.47;1.15;;;9.10;99.90;;;;;;5033846;28;20205;-45
2021/03/27 08:41:43;;;;;;;1.20;1.10;;;9.00;99.90;;;;;;5033595;28;20235;-44
2021/03/27 08:44:52;;;;;;;1.58;1.00;;;8.90;99.90;;;;;;5033494;28;20319;-43
2021/03/27 08:47:38;;;;;;;0.98;0.98;;;8.80;99.90;;;;;;4987484;28;20546;-42
2021/03/27 08:50:40;;;;;;;1.83;1.42;;;8.70;99.90;;;;;;5033484;28;20701;-43
2021/03/27 08:53:34;;;;;;;1.35;0.98;;;8.70;99.90;;;;;;5033688;28;20240;-42
2021/03/27 08:56:57;;;;;;;1.45;0.88;;;8.60;99.90;;;;;;5033389;28;20216;-42
2021/03/27 08:59:54;;;;;;;1.40;1.30;;;8.60;99.90;;;;;;5033543;28;20580;-42
2021/03/27 09:02:40;;;;;;;1.27;1.17;;;8.70;99.90;;;;;;5033536;28;20288;-42
2021/03/27 09:05:40;;;;;;;2.28;1.50;;;8.80;99.90;;;;;;5033547;28;20267;-42
2021/03/27 09:08:31;;;;;;;1.70;1.40;;;8.90;99.90;;;;;;5033493;28;20296;-45
2021/03/27 09:11:27;;;;;;;3.80;1.08;;;8.90;99.90;;;;;;5033413;28;20213;-43
2021/03/27 09:14:33;;;;;;;1.10;0.95;;;8.90;99.90;;;;;;5033218;28;20291;-43
2021/03/27 09:17:31;;;;;;;2.45;2.15;;;9.00;99.90;;;;;;5009805;28;20254;-42
2021/03/27 09:20:27;;;;;;;1.40;1.00;;;9.20;99.90;;;;;;5033135;28;20703;-42
2021/03/27 09:23:13;;;;;;;2.63;1.73;;;9.40;99.40;;;;;;5031801;28;20251;-39
2021/03/27 09:26:19;;;;;;;3.60;2.85;;;9.50;99.60;;;;;;5016848;28;20284;-39
2021/03/27 09:29:01;;;;;;;2.55;1.48;;;9.60;99.60;;;;;;5033292;28;20216;-41
2021/03/27 09:31:51;;;;;;;1.23;1.13;;;9.70;98.70;;;;;;5032403;28;20648;-42
2021/03/27 09:34:36;;;;;;;2.80;1.77;;;9.60;98.60;;;;;;5032949;28;20331;-45
2021/03/27 09:37:15;;;;;;;1.27;1.08;;;9.50;99.20;;;;;;5032843;28;20287;-43
2021/03/27 09:39:52;;;;;;;1.85;1.05;;;9.60;98.90;;;;;;5033046;28;20588;-42
2021/03/27 09:42:45;;;;;;;4.15;3.45;;;9.60;99.10;;;;;;5033239;28;20235;-43
2021/03/27 09:45:27;;;;;;;2.28;1.58;;;9.70;99.10;;;;;;5032676;28;20232;-44
2021/03/27 09:48:19;;;;;;;2.42;1.35;;;9.80;98.70;;;;;;5032995;28;20224;-41
2021/03/27 09:50:53;;;;;;;2.28;1.90;;;9.80;98.50;;;;;;5032423;28;20307;-46
2021/03/27 09:53:33;;;;;;;5.63;1.30;;;9.90;98.90;;;;;;5032585;28;20296;-43
2021/03/27 09:56:05;;;;;;;2.20;1.73;;;10.00;98.10;;;;;;5032541;28;20698;-43
2021/03/27 09:58:52;;;;;;;1.80;1.10;;;10.10;98.00;;;;;;5031737;28;20303;-42
2021/03/27 10:01:29;;;;;;;2.00;1.50;;;10.40;97.00;;;;;;5032354;28;20662;-43
2021/03/27 10:04:09;;;;;;;3.03;1.17;;;10.40;96.90;;;;;;5032704;28;20228;-43
2021/03/27 10:07:13;;;;;;;1.35;1.13;;;10.30;96.20;;;;;;5032670;28;20222;-46
2021/03/27 10:10:18;;;;;;;1.67;1.50;;;10.20;96.20;;;;;;5020210;28;20298;-45
2021/03/27 10:12:58;;;;;;;2.65;2.00;;;10.20;96.60;;;;;;5032406;28;20219;-42
2021/03/27 10:15:34;;;;;;;2.90;1.67;;;10.40;96.30;;;;;;5032087;28;20253;-43
2021/03/27 10:18:10;;;;;;;1.55;1.23;;;10.40;96.00;;;;;;5032311;28;20213;-44
2021/03/27 10:20:42;;;;;;;5.95;2.15;;;10.40;95.60;;;;;;5031972;28;20761;-43
2021/03/27 10:23:23;;;;;;;2.15;1.20;;;10.40;95.60;;;;;;5032237;28;20298;-42
2021/03/27 10:26:17;;;;;;;2.22;1.35;;;10.40;95.40;;;;;;5032113;28;20291;-42
2021/03/27 10:28:49;;;;;;;3.95;2.00;;;10.50;94.90;;;;;;5031956;28;20291;-42
2021/03/27 10:31:19;;;;;;;4.22;2.33;;;10.50;95.00;;;;;;5032382;28;20287;-42
2021/03/27 10:33:55;;;;;;;2.45;1.70;;;10.50;94.10;;;;;;5031850;28;20243;-44
2021/03/27 10:36:38;;;;;;;4.03;1.70;;;10.40;94.50;;;;;;5032532;28;20212;-43
2021/03/27 10:39:48;;;;;;;1.30;1.20;;;10.60;94.00;;;;;;5031968;28;20212;-46
2021/03/27 10:42:57;;;;;;;3.63;1.70;;;10.90;92.80;;;;;;5031712;28;20240;-43
2021/03/27 10:45:37;;;;;;;4.22;1.60;;;10.90;92.40;;;;;;5031729;28;20706;-45
2021/03/27 10:48:25;;;;;;;1.17;1.08;;;11.00;93.00;;;;;;5031896;28;20289;-43
2021/03/27 10:51:12;;;;;;;2.67;2.00;;;11.00;92.10;;;;;;5031409;28;20248;-42
2021/03/27 10:53:52;;;;;;;4.00;2.22;;;10.80;92.90;;;;;;5031663;28;20291;-42
2021/03/27 10:56:57;;;;;;;3.15;1.80;;;10.70;92.90;;;;;;5031517;28;20303;-41
2021/03/27 10:59:38;;;;;;;6.13;1.98;;;10.60;92.90;;;;;;5031456;28;20291;-42
2021/03/27 11:02:50;;;;;;;4.10;1.48;;;10.60;93.00;;;;;;5031617;28;20262;-41
2021/03/27 11:05:40;;;;;;;2.45;1.63;;;10.60;91.70;;;;;;4988394;28;20244;-41
2021/03/27 11:08:42;;;;;;;2.38;1.50;;;10.40;92.20;;;;;;5031826;28;20295;-41
2021/03/27 11:11:41;;;;;;;4.72;1.00;;;10.50;91.50;;;;;;5035817;28;20212;-42
2021/03/27 11:14:51;;;;;;;2.47;1.30;;;10.50;90.90;;;;;;5035654;28;20224;-41
2021/03/27 11:17:50;;;;;;;7.57;5.00;;;10.70;89.20;;;;;;5026295;28;20208;-42
2021/03/27 11:20:51;;;;;;;2.42;1.13;;;11.00;89.50;;;;;;5035465;28;20244;-42
2021/03/27 11:23:57;;;;;;;3.47;1.00;;;11.00;87.20;;;;;;5035437;28;20240;-42
2021/03/27 11:26:44;;;;;;;3.38;1.30;;;10.90;86.10;;;;;;5035211;28;20212;-42
2021/03/27 11:29:27;;;;;;;2.67;1.60;;;10.70;85.50;;;;;;5035189;28;20651;-42
2021/03/27 11:32:03;;;;;;;3.17;1.48;;;10.60;87.40;;;;;;5035156;28;20209;-42
2021/03/27 11:34:37;;;;;;;2.45;1.10;;;10.40;87.60;;;;;;5035464;28;20583;-43
2021/03/27 11:37:12;;;;;;;1.17;0.80;;;10.40;88.00;;;;;;5035489;28;20566;-41
2021/03/27 11:39:45;;;;;;;1.30;1.20;;;10.40;88.80;;;;;;5035349;28;20266;-43
2021/03/27 11:42:25;;;;;;;2.47;1.00;;;10.70;87.70;;;;;;5035283;28;20212;-42
2021/03/27 11:45:00;;;;;;;3.58;2.00;;;11.00;85.80;;;;;;5035178;28;20270;-38
2021/03/27 11:47:50;;;;;;;4.03;1.52;;;11.40;84.50;;;;;;5035045;28;20211;-42
2021/03/27 11:50:50;;;;;;;1.38;1.10;;;11.80;83.30;;;;;;5035007;28;20204;-42
2021/03/27 11:53:41;;;;;;;1.63;1.40;;;12.10;80.20;;;;;;5035070;28;20312;-43
2021/03/27 11:56:20;;;;;;;2.22;1.35;;;11.90;80.60;;;;;;5035236;28;20212;-41
2021/03/27 12:02:15;;;;;;;2.47;1.60;;;11.50;81.40;;;;;;5034838;28;20300;-42
2021/03/27 12:04:58;;;;;;;1.13;0.90;;;11.20;82.10;;;;;;5034687;28;20781;-41
2021/03/27 12:07:33;;;;;;;2.55;1.45;;;11.00;83.10;;;;;;5034585;28;20258;-41
2021/03/27 12:10:05;;;;;;;2.67;1.30;;;10.80;83.40;;;;;;5034765;28;20232;-41
2021/03/27 12:12:49;;;;;;;1.83;1.20;;;10.60;83.60;;;;;;5034868;28;20403;-40
2021/03/27 12:15:29;;;;;;;5.43;1.60;;;10.60;83.20;;;;;;5034277;28;20663;-42
2021/03/27 12:18:07;;;;;;;2.28;1.23;;;10.80;83.60;;;;;;5034773;28;20219;-42
2021/03/27 12:20:38;;;;;;;2.65;1.25;;;11.10;82.20;;;;;;5033671;28;20248;-41
2021/03/27 12:23:17;;;;;;;3.50;1.00;;;11.10;81.70;;;;;;5034268;28;20282;-39
2021/03/27 12:25:53;;;;;;;1.70;1.48;;;11.20;81.00;;;;;;5034346;28;20234;-41
2021/03/27 12:28:29;;;;;;;2.83;1.38;;;11.30;80.50;;;;;;5034339;28;20204;-41
2021/03/27 12:31:07;;;;;;;2.30;0.95;;;11.50;79.90;;;;;;5034193;28;20267;-40
2021/03/27 12:33:47;;;;;;;2.55;1.40;;;11.70;76.30;;;;;;5034450;28;20247;-40
2021/03/27 12:36:19;;;;;;;1.10;1.00;;;12.00;75.20;;;;;;5034020;28;20291;-41
2021/03/27 12:39:03;;;;;;;0.77;0.77;;;12.40;75.30;;;;;;5034141;28;20212;-41
2021/03/27 12:41:35;;;;;;;2.58;1.20;;;12.80;73.00;;;;;;5034005;28;20278;-42
2021/03/27 12:44:05;;;;;;;4.65;1.20;;;13.00;73.50;;;;;;5034032;28;20228;-41
2021/03/27 12:46:46;;;;;;;2.47;1.33;;;13.10;72.30;;;;;;5034198;28;20292;-42
2021/03/27 12:49:41;;;;;;;2.42;1.40;;;13.10;70.10;;;;;;5033576;28;20635;-40
2021/03/27 12:52:22;;;;;;;2.88;1.40;;;12.80;70.10;;;;;;5033636;28;20237;-41
2021/03/27 12:54:59;;;;;;;4.20;1.42;;;12.60;70.30;;;;;;5033834;28;20204;-41
2021/03/27 12:57:42;;;;;;;1.58;0.80;;;12.30;70.50;;;;;;5033880;28;20650;-41
2021/03/27 13:00:45;;;;;;;1.52;1.10;;;12.00;69.30;;;;;;5033738;28;20240;-41
2021/03/27 13:03:50;;;;;;;1.77;1.15;;;11.80;70.90;;;;;;5031186;28;20641;-41
2021/03/27 13:06:29;;;;;;;3.20;1.23;;;11.90;69.50;;;;;;5033661;28;20296;-43
2021/03/27 13:09:29;;;;;;;1.40;0.90;;;12.00;68.60;;;;;;5033763;28;20209;-42
2021/03/27 13:11:59;;;;;;;1.10;1.00;;;12.00;66.90;;;;;;5033392;28;20694;-42
2021/03/27 13:15:08;;;;;;;2.50;1.50;;;12.00;68.00;;;;;;5033503;28;20308;-41
2021/03/27 13:17:47;;;;;;;1.00;0.98;;;12.10;64.70;;;;;;5033359;28;20243;-41
2021/03/27 13:20:32;;;;;;;0.93;0.80;;;12.10;65.50;;;;;;5033450;28;20266;-42
2021/03/27 13:23:07;;;;;;;1.90;1.10;;;12.10;65.30;;;;;;5033233;28;20240;-41
2021/03/27 13:25:39;;;;;;;1.35;0.80;;;12.10;65.50;;;;;;5033300;28;20596;-42
2021/03/27 13:28:17;;;;;;;3.47;2.63;;;12.10;64.60;;;;;;5033287;28;20255;-43
2021/03/27 13:30:49;;;;;;;3.50;2.58;;;12.20;63.40;;;;;;5033174;28;20236;-40
2021/03/27 13:33:27;;;;;;;1.77;0.75;;;12.40;63.90;;;;;;5031973;28;20327;-42
2021/03/27 13:36:10;;;;;;;3.03;1.10;;;12.40;61.30;;;;;;5032961;28;20659;-41
2021/03/27 13:38:47;;;;;;;2.15;1.33;;;12.50;62.10;;;;;;5032914;28;20208;-42
2021/03/27 13:41:46;;;;;;;1.38;1.20;;;12.60;62.30;;;;;;5032925;28;20291;-42
2021/03/27 13:44:24;;;;;;;1.27;0.95;;;12.70;61.30;;;;;;5033037;28;20703;-42
2021/03/27 13:47:02;;;;;;;1.60;1.50;;;12.90;60.80;;;;;;5033192;28;20629;-41
2021/03/27 13:49:36;;;;;;;1.40;1.05;;;12.90;60.90;;;;;;5033143;28;20670;-42
2021/03/27 13:52:12;;;;;;;1.20;0.90;;;13.10;60.70;;;;;;5031076;28;20216;-41
2021/03/27 13:54:46;;;;;;;2.25;1.00;;;13.20;59.60;;;;;;5013160;28;20216;-41
2021/03/27 13:57:29;;;;;;;8.32;1.80;;;13.20;58.60;;;;;;5012991;28;20643;-41
2021/03/27 14:00:02;;;;;;;1.77;1.30;;;13.10;59.20;;;;;;5013029;28;20256;-45
2021/03/27 14:02:48;;;;;;;3.20;1.30;;;13.30;58.60;;;;;;5012717;28;20642;-41
2021/03/27 14:05:42;;;;;;;2.38;0.90;;;13.40;57.90;;;;;;5012850;28;20276;-41
2021/03/27 14:08:30;;;;;;;3.33;1.30;;;13.50;57.20;;;;;;5012732;28;20668;-42
2021/03/27 14:11:01;;;;;;;1.88;1.65;;;13.50;56.70;;;;;;5012742;28;20232;-44
2021/03/27 14:13:36;;;;;;;1.75;0.90;;;13.40;57.00;;;;;;5012897;28;20220;-42
2021/03/27 14:16:12;;;;;;;1.83;1.33;;;13.30;56.30;;;;;;5012549;28;20209;-41
2021/03/27 14:18:55;;;;;;;1.73;1.10;;;13.30;56.00;;;;;;5012899;28;20344;-42
2021/03/27 14:21:49;;;;;;;1.27;1.00;;;13.30;56.40;;;;;;5012391;28;20714;-42
2021/03/27 14:24:53;;;;;;;2.42;0.88;;;13.40;56.50;;;;;;5012584;28;20332;-44